createdAt,value
2022-12-03T00:00:36.277Z,20.39
2022-12-03T00:03:03.819Z,20.39
2022-12-03T00:05:30.937Z,20.37
2022-12-03T00:07:58.193Z,20.31
2022-12-03T00:10:26.450Z,20.21
2022-12-03T00:12:54.023Z,20.14
2022-12-03T00:15:21.175Z,20.05
2022-12-03T00:17:48.176Z,19.96
2022-12-03T00:20:22.250Z,19.87
2022-12-03T00:22:49.828Z,19.84
2022-12-03T00:25:17.047Z,19.87
2022-12-03T00:27:44.452Z,19.94
2022-12-03T00:30:12.632Z,20.03
2022-12-03T00:32:39.815Z,20.15
2022-12-03T00:35:07.614Z,20.17
2022-12-03T00:37:35.497Z,20.19
2022-12-03T00:40:04.222Z,20.23
2022-12-03T00:42:31.610Z,20.29
2022-12-03T00:44:58.589Z,20.35
2022-12-03T00:47:25.652Z,20.34
2022-12-03T00:49:52.742Z,20.33
2022-12-03T00:52:20.071Z,20.27
2022-12-03T00:54:47.144Z,20.24
2022-12-03T00:57:14.196Z,20.17
2022-12-03T00:59:41.443Z,20.19
2022-12-03T01:02:09.218Z,20.18
2022-12-03T01:04:36.474Z,20.14
2022-12-03T01:07:03.803Z,20.06
2022-12-03T01:09:30.785Z,20.03
2022-12-03T01:11:57.989Z,20.03
2022-12-03T01:14:25.133Z,20.06
2022-12-03T01:16:52.144Z,20.10
2022-12-03T01:19:19.798Z,20.12
2022-12-03T01:21:49.727Z,20.07
2022-12-03T01:24:17.937Z,20.04
2022-12-03T01:26:45.318Z,19.99
2022-12-03T01:29:12.311Z,19.94
2022-12-03T01:31:58.039Z,19.94
2022-12-03T01:34:25.010Z,19.91
2022-12-03T01:36:52.774Z,19.87
2022-12-03T01:39:20.347Z,19.84
2022-12-03T01:41:49.563Z,19.83
2022-12-03T01:44:28.226Z,19.84
2022-12-03T01:46:57.544Z,19.85
2022-12-03T01:49:43.719Z,19.85
2022-12-03T01:52:17.140Z,19.83
2022-12-03T01:55:15.205Z,19.78
2022-12-03T01:57:46.447Z,19.74
2022-12-03T02:00:20.219Z,19.71
2022-12-03T02:02:53.020Z,19.67
2022-12-03T02:05:24.002Z,19.66
2022-12-03T02:07:51.267Z,19.68
2022-12-03T02:10:21.644Z,19.72
2022-12-03T02:13:09.345Z,19.76
2022-12-03T02:15:38.764Z,19.84
2022-12-03T02:18:05.883Z,19.90
2022-12-03T02:20:41.194Z,19.97
2022-12-03T02:23:16.743Z,20.01
2022-12-03T02:25:43.943Z,20.05
2022-12-03T02:28:11.297Z,20.09
2022-12-03T02:30:38.392Z,20.14
2022-12-03T02:33:05.638Z,20.17
2022-12-03T02:35:35.077Z,20.16
2022-12-03T02:38:37.449Z,20.20
2022-12-03T02:41:08.433Z,20.20
2022-12-03T02:43:35.660Z,20.20
2022-12-03T02:46:05.278Z,20.22
2022-12-03T02:48:35.875Z,20.26
2022-12-03T02:51:11.255Z,20.31
2022-12-03T02:53:45.059Z,20.35
2022-12-03T02:56:16.677Z,20.40
2022-12-03T02:58:45.544Z,20.38
2022-12-03T03:01:13.090Z,20.39
2022-12-03T03:03:40.369Z,20.36
2022-12-03T03:06:08.863Z,20.16
2022-12-03T03:08:37.521Z,20.02
2022-12-03T03:11:05.317Z,19.86
2022-12-03T03:13:35.669Z,19.71
2022-12-03T03:16:04.150Z,19.52
2022-12-03T03:18:32.613Z,19.37
2022-12-03T03:20:59.888Z,19.33
2022-12-03T03:23:26.922Z,19.38
2022-12-03T03:26:05.836Z,19.37
2022-12-03T03:28:36.075Z,19.36
2022-12-03T03:31:05.370Z,19.33
2022-12-03T03:33:32.966Z,19.37
2022-12-03T03:36:00.825Z,19.42
2022-12-03T03:38:30.025Z,19.43
2022-12-03T03:40:59.552Z,19.45
2022-12-03T03:43:26.746Z,19.44
2022-12-03T03:45:54.406Z,19.45
2022-12-03T03:48:22.759Z,19.49
2022-12-03T03:50:51.288Z,19.52
2022-12-03T03:53:19.582Z,19.53
2022-12-03T03:55:47.165Z,19.52
2022-12-03T03:58:14.402Z,19.51
2022-12-03T04:00:44.331Z,19.51
2022-12-03T04:03:11.932Z,19.50
2022-12-03T04:05:39.457Z,19.50
2022-12-03T04:08:21.764Z,19.45
2022-12-03T04:11:07.276Z,19.43
2022-12-03T04:13:34.356Z,19.43
2022-12-03T04:16:01.601Z,19.40
2022-12-03T04:18:43.529Z,19.36
2022-12-03T04:21:37.862Z,19.32
2022-12-03T04:24:06.198Z,19.27
2022-12-03T04:26:51.932Z,19.24
2022-12-03T04:29:20.141Z,19.21
2022-12-03T04:32:05.705Z,19.19
2022-12-03T04:34:52.209Z,19.21
2022-12-03T04:37:19.694Z,19.23
2022-12-03T04:39:46.781Z,19.19
2022-12-03T04:42:13.865Z,19.15
2022-12-03T04:44:40.922Z,19.10
2022-12-03T04:47:14.050Z,19.09
2022-12-03T04:49:43.532Z,19.04
2022-12-03T04:52:12.181Z,19.01
2022-12-03T04:54:39.526Z,19.01
2022-12-03T04:57:07.119Z,19.03
2022-12-03T04:59:35.123Z,19.06
2022-12-03T05:02:02.364Z,19.08
2022-12-03T05:04:29.711Z,19.13
2022-12-03T05:06:56.724Z,19.14
2022-12-03T05:09:24.038Z,19.12
2022-12-03T05:11:51.111Z,19.13
2022-12-03T05:14:18.079Z,19.13
2022-12-03T05:16:45.124Z,19.18
2022-12-03T05:19:12.180Z,19.24
2022-12-03T05:21:39.146Z,19.26
2022-12-03T05:24:06.638Z,19.25
2022-12-03T05:26:33.709Z,19.23
2022-12-03T05:29:00.723Z,19.20
2022-12-03T05:31:27.817Z,19.21
2022-12-03T05:33:55.462Z,19.26
2022-12-03T05:36:22.595Z,19.29
2022-12-03T05:38:49.579Z,19.34
2022-12-03T05:41:34.899Z,19.37
2022-12-03T05:44:01.921Z,19.44
2022-12-03T05:46:29.176Z,19.50
2022-12-03T05:48:56.255Z,19.53
2022-12-03T05:51:23.315Z,19.57
2022-12-03T05:53:50.323Z,19.59
2022-12-03T05:56:17.333Z,19.60
2022-12-03T05:58:44.319Z,19.60
2022-12-03T06:01:11.244Z,19.63
2022-12-03T06:03:38.414Z,19.66
2022-12-03T06:06:05.706Z,19.69
2022-12-03T06:08:32.665Z,19.63
2022-12-03T06:10:59.651Z,19.56
2022-12-03T06:13:26.656Z,19.55
2022-12-03T06:15:53.702Z,19.57
2022-12-03T06:18:20.777Z,19.56
2022-12-03T06:20:47.808Z,19.48
2022-12-03T06:23:14.847Z,19.45
2022-12-03T06:25:41.830Z,19.49
2022-12-03T06:28:09.121Z,19.49
2022-12-03T06:30:36.226Z,19.53
2022-12-03T06:33:03.374Z,19.56
2022-12-03T06:35:30.498Z,19.55
2022-12-03T06:37:57.557Z,19.54
2022-12-03T06:40:25.339Z,19.56
2022-12-03T06:42:53.108Z,19.60
2022-12-03T06:45:20.111Z,19.64
2022-12-03T06:47:47.287Z,19.60
2022-12-03T06:50:15.060Z,19.56
2022-12-03T06:52:42.066Z,19.51
2022-12-03T06:55:09.734Z,19.44
2022-12-03T06:57:36.755Z,19.35
2022-12-03T07:00:06.361Z,19.25
2022-12-03T07:02:33.578Z,19.17
2022-12-03T07:05:00.706Z,19.13
2022-12-03T07:07:27.673Z,19.11
2022-12-03T07:09:54.658Z,19.05
2022-12-03T07:12:21.740Z,18.97
2022-12-03T07:14:48.769Z,18.89
2022-12-03T07:17:15.799Z,18.88
2022-12-03T07:19:42.860Z,18.85
2022-12-03T07:22:09.904Z,18.85
2022-12-03T07:24:36.851Z,18.81
2022-12-03T07:27:03.908Z,18.84
2022-12-03T07:29:30.943Z,18.87
2022-12-03T07:31:57.960Z,18.93
2022-12-03T07:34:24.937Z,18.90
2022-12-03T07:36:52.048Z,18.82
2022-12-03T07:39:19.019Z,18.76
2022-12-03T07:41:46.017Z,18.68
2022-12-03T07:44:14.755Z,18.58
2022-12-03T07:46:42.436Z,18.55
2022-12-03T07:49:09.634Z,18.55
2022-12-03T07:51:36.738Z,18.56
2022-12-03T07:54:04.104Z,18.60
2022-12-03T07:56:31.139Z,18.63
2022-12-03T07:58:58.114Z,18.69
2022-12-03T08:01:25.193Z,18.74
2022-12-03T08:03:52.263Z,18.79
2022-12-03T08:06:19.327Z,18.89
2022-12-03T08:08:46.300Z,18.95
2022-12-03T08:11:17.119Z,19.01
2022-12-03T08:13:44.165Z,19.04
2022-12-03T08:16:22.639Z,18.95
2022-12-03T08:18:50.815Z,18.91
2022-12-03T08:21:19.917Z,18.88
2022-12-03T08:23:47.043Z,18.93
2022-12-03T08:26:22.169Z,18.96
2022-12-03T08:28:49.331Z,18.96
2022-12-03T08:31:20.952Z,18.96
2022-12-03T08:33:50.559Z,18.91
2022-12-03T08:36:26.197Z,18.80
2022-12-03T08:38:56.701Z,18.72
2022-12-03T08:41:44.850Z,18.66
2022-12-03T08:44:28.459Z,18.59
2022-12-03T08:47:02.647Z,18.57
2022-12-03T08:49:30.091Z,18.59
2022-12-03T08:52:00.814Z,18.60
2022-12-03T08:54:28.137Z,18.57
2022-12-03T08:56:55.365Z,18.59
2022-12-03T08:59:29.700Z,18.58
2022-12-03T09:01:57.678Z,18.56
2022-12-03T09:04:32.072Z,18.54
2022-12-03T09:06:59.365Z,18.54
2022-12-03T09:09:26.664Z,18.60
2022-12-03T09:11:54.358Z,18.70
2022-12-03T09:14:23.019Z,18.86
2022-12-03T09:16:52.282Z,18.98
2022-12-03T09:19:19.428Z,19.09
2022-12-03T09:21:46.396Z,19.19
2022-12-03T09:24:13.403Z,19.24
2022-12-03T09:26:40.539Z,19.32
2022-12-03T09:29:11.824Z,19.43
2022-12-03T09:31:39.614Z,19.56
2022-12-03T09:34:07.262Z,19.67
2022-12-03T09:36:34.548Z,19.81
2022-12-03T09:39:01.689Z,19.93
2022-12-03T09:41:29.152Z,20.07
2022-12-03T09:44:05.615Z,20.18
2022-12-03T09:46:35.966Z,20.29
2022-12-03T09:49:06.630Z,20.42
2022-12-03T09:51:36.919Z,20.53
2022-12-03T09:54:06.350Z,20.58
2022-12-03T09:56:36.796Z,20.57
2022-12-03T09:59:07.703Z,20.48
2022-12-03T10:01:34.949Z,20.48
2022-12-03T10:04:02.378Z,20.54
2022-12-03T10:06:29.669Z,20.46
2022-12-03T10:08:57.004Z,20.28
2022-12-03T10:11:25.838Z,20.04
2022-12-03T10:13:55.526Z,19.97
2022-12-03T10:16:23.195Z,19.98
2022-12-03T10:18:56.300Z,20.04
2022-12-03T10:21:26.109Z,20.12
2022-12-03T10:24:17.773Z,20.08
2022-12-03T10:26:46.890Z,20.05
2022-12-03T10:29:17.164Z,20.02
2022-12-03T10:31:44.222Z,19.92
2022-12-03T10:34:12.191Z,19.92
2022-12-03T10:36:39.209Z,19.95
2022-12-03T10:39:13.910Z,20.05
2022-12-03T10:41:43.139Z,20.19
2022-12-03T10:44:15.989Z,20.25
2022-12-03T10:46:44.464Z,20.32
2022-12-03T10:49:19.776Z,20.44
2022-12-03T10:51:48.849Z,20.53
2022-12-03T10:54:22.654Z,20.50
2022-12-03T10:56:50.846Z,20.52
2022-12-03T10:59:22.212Z,20.47
2022-12-03T11:01:50.668Z,20.45
2022-12-03T11:04:31.050Z,20.51
2022-12-03T11:06:58.854Z,20.59
2022-12-03T11:09:29.835Z,20.69
2022-12-03T11:11:56.985Z,20.71
2022-12-03T11:14:52.400Z,20.72
2022-12-03T11:17:51.268Z,20.79
2022-12-03T11:20:23.064Z,20.81
2022-12-03T11:22:59.701Z,20.83
2022-12-03T11:25:29.572Z,20.82
2022-12-03T11:28:45.947Z,20.83
2022-12-03T11:31:36.608Z,20.91
2022-12-03T11:34:18.602Z,21.00
2022-12-03T11:37:13.194Z,21.04
2022-12-03T11:39:53.288Z,21.13
2022-12-03T11:42:26.357Z,21.21
2022-12-03T11:45:11.292Z,21.28
2022-12-03T11:47:43.571Z,21.37
2022-12-03T11:50:39.446Z,21.45
2022-12-03T11:53:13.867Z,21.49
2022-12-03T11:55:52.484Z,21.59
2022-12-03T11:58:40.047Z,21.68
2022-12-03T12:01:08.689Z,21.73
2022-12-03T12:03:42.658Z,21.74
2022-12-03T12:06:14.255Z,21.68
2022-12-03T12:08:51.019Z,21.61
2022-12-03T12:11:32.823Z,21.44
2022-12-03T12:14:01.808Z,21.32
2022-12-03T12:16:55.335Z,21.00
2022-12-03T12:19:31.680Z,20.76
2022-12-03T12:22:28.823Z,20.52
2022-12-03T12:25:04.772Z,20.38
2022-12-03T12:27:45.343Z,20.37
2022-12-03T12:30:19.102Z,20.45
2022-12-03T12:32:47.539Z,20.53
2022-12-03T12:35:28.820Z,20.71
2022-12-03T12:38:02.833Z,20.81
2022-12-03T12:40:32.645Z,20.86
2022-12-03T12:43:31.067Z,20.98
2022-12-03T12:46:24.886Z,21.17
2022-12-03T12:48:56.504Z,21.24
2022-12-03T12:51:26.491Z,21.32
2022-12-03T12:53:54.085Z,21.28
2022-12-03T12:56:28.491Z,21.25
2022-12-03T12:58:59.453Z,21.29
2022-12-03T13:01:31.558Z,21.38
2022-12-03T13:03:59.780Z,21.44
2022-12-03T13:06:29.954Z,21.44
2022-12-03T13:08:57.727Z,21.24
2022-12-03T13:11:46.041Z,21.14
2022-12-03T13:14:16.411Z,21.05
2022-12-03T13:16:43.841Z,21.04
2022-12-03T13:19:30.659Z,21.06
2022-12-03T13:22:01.463Z,21.13
2022-12-03T13:24:32.890Z,21.21
2022-12-03T13:27:22.176Z,21.33
2022-12-03T13:30:14.102Z,21.44
2022-12-03T13:32:43.041Z,21.45
2022-12-03T13:35:30.834Z,21.48
2022-12-03T13:38:00.739Z,21.53
2022-12-03T13:40:35.187Z,21.60
2022-12-03T13:43:14.822Z,21.67
2022-12-03T13:45:44.112Z,21.74
2022-12-03T13:48:20.517Z,21.78
2022-12-03T13:50:47.703Z,21.74
2022-12-03T13:53:35.892Z,21.77
2022-12-03T13:56:28.243Z,21.82
2022-12-03T13:58:57.603Z,21.81
2022-12-03T14:01:24.710Z,21.77
2022-12-03T14:03:51.796Z,21.77
2022-12-03T14:06:19.021Z,21.76
2022-12-03T14:08:46.050Z,21.73
2022-12-03T14:11:31.589Z,21.75
2022-12-03T14:13:58.522Z,21.84
2022-12-03T14:16:25.525Z,21.85
2022-12-03T14:18:52.658Z,21.84
2022-12-03T14:21:19.726Z,21.84
2022-12-03T14:23:46.663Z,21.83
2022-12-03T14:26:13.699Z,21.73
2022-12-03T14:28:40.794Z,21.71
2022-12-03T14:31:07.804Z,21.70
2022-12-03T14:33:34.868Z,21.73
2022-12-03T14:36:01.943Z,21.78
2022-12-03T14:38:28.936Z,21.81
2022-12-03T14:40:56.041Z,21.78
2022-12-03T14:43:23.111Z,21.78
2022-12-03T14:45:50.168Z,21.83
2022-12-03T14:48:17.219Z,21.89
2022-12-03T14:50:44.195Z,21.86
2022-12-03T14:53:11.172Z,21.73
2022-12-03T14:55:38.188Z,21.65
2022-12-03T14:58:05.235Z,21.67
2022-12-03T15:00:32.220Z,21.66
2022-12-03T15:02:59.290Z,21.70
2022-12-03T15:05:28.826Z,21.80
2022-12-03T15:07:56.503Z,21.87
2022-12-03T15:10:23.786Z,21.92
2022-12-03T15:12:50.849Z,21.96
2022-12-03T15:15:17.838Z,21.93
2022-12-03T15:17:45.994Z,21.94
2022-12-03T15:20:13.486Z,21.97
2022-12-03T15:22:40.429Z,21.99
2022-12-03T15:25:08.040Z,21.97
2022-12-03T15:27:35.129Z,21.93
2022-12-03T15:30:02.571Z,21.91
2022-12-03T15:32:29.559Z,21.89
2022-12-03T15:34:56.579Z,21.77
2022-12-03T15:37:27.850Z,21.71
2022-12-03T15:39:55.187Z,21.68
2022-12-03T15:42:22.407Z,21.64
2022-12-03T15:44:49.503Z,21.62
2022-12-03T15:47:16.494Z,21.56
2022-12-03T15:49:43.663Z,21.55
2022-12-03T15:52:10.748Z,21.61
2022-12-03T15:54:37.810Z,21.67
2022-12-03T15:57:04.803Z,21.64
2022-12-03T15:59:31.899Z,21.61
2022-12-03T16:01:59.343Z,21.68
2022-12-03T16:04:26.475Z,21.71
2022-12-03T16:06:53.523Z,21.70
2022-12-03T16:09:26.692Z,21.59
2022-12-03T16:11:54.558Z,21.63
2022-12-03T16:14:21.586Z,21.71
2022-12-03T16:16:48.555Z,21.66
2022-12-03T16:19:15.476Z,21.64
2022-12-03T16:21:42.531Z,21.60
2022-12-03T16:24:09.562Z,21.60
2022-12-03T16:26:36.598Z,21.69
2022-12-03T16:29:03.774Z,21.77
2022-12-03T16:31:31.011Z,21.81
2022-12-03T16:33:58.150Z,21.86
2022-12-03T16:36:25.247Z,21.89
2022-12-03T16:38:52.304Z,21.92
2022-12-03T16:41:19.384Z,21.92
2022-12-03T16:43:48.685Z,21.97
2022-12-03T16:46:15.803Z,22.01
2022-12-03T16:48:43.481Z,21.99
2022-12-03T16:51:11.098Z,22.03
2022-12-03T16:53:38.198Z,22.06
2022-12-03T16:56:05.400Z,21.88
2022-12-03T16:58:32.416Z,21.78
2022-12-03T17:00:59.812Z,21.78
2022-12-03T17:03:33.456Z,21.77
2022-12-03T17:06:01.117Z,21.76
2022-12-03T17:08:28.125Z,21.68
2022-12-03T17:10:55.333Z,21.61
2022-12-03T17:13:25.824Z,21.58
2022-12-03T17:15:53.009Z,21.48
2022-12-03T17:18:20.145Z,21.49
2022-12-03T17:20:47.116Z,21.47
2022-12-03T17:23:14.230Z,21.50
2022-12-03T17:25:41.199Z,21.51
2022-12-03T17:28:08.142Z,21.50
2022-12-03T17:30:35.362Z,21.50
2022-12-03T17:33:02.355Z,21.42
2022-12-03T17:35:29.530Z,21.31
2022-12-03T17:37:56.776Z,21.25
2022-12-03T17:40:23.799Z,21.23
2022-12-03T17:42:50.783Z,21.23
2022-12-03T17:45:17.952Z,21.19
2022-12-03T17:47:44.924Z,21.10
2022-12-03T17:50:12.347Z,21.11
2022-12-03T17:52:39.405Z,21.11
2022-12-03T17:55:13.925Z,21.12
2022-12-03T17:57:43.240Z,21.12
2022-12-03T18:00:10.781Z,21.10
2022-12-03T18:02:37.797Z,21.07
2022-12-03T18:05:05.222Z,21.01
2022-12-03T18:07:32.459Z,20.96
2022-12-03T18:09:59.622Z,20.98
2022-12-03T18:12:26.639Z,20.98
2022-12-03T18:14:53.655Z,20.96
2022-12-03T18:17:20.757Z,20.95
2022-12-03T18:19:47.904Z,20.94
2022-12-03T18:22:15.236Z,20.90
2022-12-03T18:24:44.945Z,20.88
2022-12-03T18:27:13.118Z,20.87
2022-12-03T18:29:40.177Z,20.88
2022-12-03T18:32:27.082Z,20.86
2022-12-03T18:34:56.166Z,20.86
2022-12-03T18:37:29.063Z,20.83
2022-12-03T18:39:57.777Z,20.82
2022-12-03T18:42:25.389Z,20.75
2022-12-03T18:44:54.790Z,20.69
2022-12-03T18:47:28.306Z,20.65
2022-12-03T18:49:55.971Z,20.60
2022-12-03T18:52:25.295Z,20.58
2022-12-03T18:54:53.149Z,20.56
2022-12-03T18:57:20.227Z,20.55
2022-12-03T18:59:47.385Z,20.53
2022-12-03T19:02:45.929Z,20.50
2022-12-03T19:05:04.991Z,20.51
2022-12-03T19:07:34.925Z,20.51
2022-12-03T19:10:02.327Z,20.50
2022-12-03T19:12:29.657Z,20.52
2022-12-03T19:14:56.634Z,20.54
2022-12-03T19:17:23.686Z,20.60
2022-12-03T19:19:50.739Z,20.61
2022-12-03T19:22:17.724Z,20.60
2022-12-03T19:24:44.692Z,20.63
2022-12-03T19:27:11.785Z,20.66
2022-12-03T19:29:38.923Z,20.64
2022-12-03T19:32:06.226Z,20.62
2022-12-03T19:34:33.603Z,20.58
2022-12-03T19:37:00.735Z,20.55
2022-12-03T19:39:27.687Z,20.56
2022-12-03T19:41:54.668Z,20.62
2022-12-03T19:44:21.864Z,20.64
2022-12-03T19:46:51.630Z,20.65
2022-12-03T19:49:21.151Z,20.67
2022-12-03T19:51:48.731Z,20.70
2022-12-03T19:54:17.461Z,20.75
2022-12-03T19:56:44.757Z,20.77
2022-12-03T19:59:13.257Z,20.80
2022-12-03T20:01:43.287Z,20.78
2022-12-03T20:04:11.952Z,20.74
2022-12-03T20:06:39.413Z,20.73
2022-12-03T20:09:11.760Z,20.69
2022-12-03T20:11:40.367Z,20.64
2022-12-03T20:14:10.820Z,20.63
2022-12-03T20:16:37.964Z,20.62
2022-12-03T20:19:07.724Z,20.67
2022-12-03T20:21:36.961Z,20.67
2022-12-03T20:24:05.429Z,20.52
2022-12-03T20:26:32.972Z,20.45
2022-12-03T20:29:00.490Z,20.44
2022-12-03T20:31:30.111Z,20.46
2022-12-03T20:33:59.856Z,20.50
2022-12-03T20:36:27.890Z,20.50
2022-12-03T20:38:56.683Z,20.53
2022-12-03T20:41:23.916Z,20.50
2022-12-03T20:43:51.666Z,20.45
2022-12-03T20:46:26.595Z,20.36
2022-12-03T20:48:56.986Z,20.31
2022-12-03T20:51:29.963Z,20.26
2022-12-03T20:53:58.617Z,20.24
2022-12-03T20:56:37.560Z,20.22
2022-12-03T20:59:06.954Z,20.14
2022-12-03T21:01:36.434Z,20.07
2022-12-03T21:04:04.978Z,20.02
2022-12-03T21:06:34.421Z,19.96
2022-12-03T21:09:01.780Z,19.91
2022-12-03T21:11:32.362Z,19.89
2022-12-03T21:14:00.688Z,19.89
2022-12-03T21:17:05.758Z,19.91
2022-12-03T21:19:21.114Z,19.92
2022-12-03T21:21:48.629Z,19.97
2022-12-03T21:24:15.710Z,19.95
2022-12-03T21:26:42.864Z,19.95
2022-12-03T21:29:09.925Z,19.90
2022-12-03T21:31:38.603Z,19.89
2022-12-03T21:34:06.246Z,19.86
2022-12-03T21:36:33.300Z,19.84
2022-12-03T21:39:00.936Z,19.83
2022-12-03T21:41:27.912Z,19.82
2022-12-03T21:43:54.989Z,19.83
2022-12-03T21:47:12.688Z,19.81
2022-12-03T21:49:09.220Z,19.82
2022-12-03T21:51:36.788Z,19.81
2022-12-03T21:54:04.070Z,19.81
2022-12-03T21:56:33.270Z,19.80
2022-12-03T21:59:00.263Z,19.76
2022-12-03T22:01:27.803Z,19.76
2022-12-03T22:03:54.995Z,19.78
2022-12-03T22:06:22.579Z,19.81
2022-12-03T22:08:50.090Z,19.84
2022-12-03T22:11:20.027Z,19.88
2022-12-03T22:13:47.599Z,19.90
2022-12-03T22:16:18.196Z,19.86
2022-12-03T22:18:45.644Z,19.84
2022-12-03T22:21:15.323Z,19.82
2022-12-03T22:23:42.668Z,19.81
2022-12-03T22:26:13.350Z,19.83
2022-12-03T22:28:44.622Z,19.80
2022-12-03T22:31:12.511Z,19.80
2022-12-03T22:33:39.873Z,19.78
2022-12-03T22:36:18.005Z,19.75
2022-12-03T22:38:46.806Z,19.77
2022-12-03T22:41:14.810Z,19.77
2022-12-03T22:43:42.217Z,19.76
2022-12-03T22:46:12.824Z,19.74
2022-12-03T22:48:42.262Z,19.72
2022-12-03T22:51:15.042Z,19.68
2022-12-03T22:53:42.192Z,19.65
2022-12-03T22:56:09.537Z,19.61
2022-12-03T22:58:37.894Z,19.56
2022-12-03T23:01:05.000Z,19.57
2022-12-03T23:03:32.073Z,19.59
2022-12-03T23:05:59.257Z,19.60
2022-12-03T23:08:26.292Z,19.62
2022-12-03T23:10:53.748Z,19.64
2022-12-03T23:13:21.310Z,19.66
2022-12-03T23:15:50.984Z,19.66
2022-12-03T23:18:19.724Z,19.63
2022-12-03T23:20:52.263Z,19.59
2022-12-03T23:23:20.364Z,19.56
2022-12-03T23:26:04.971Z,19.52
2022-12-03T23:28:33.327Z,19.50
2022-12-03T23:31:00.939Z,19.53
2022-12-03T23:33:28.732Z,19.55
2022-12-03T23:35:55.717Z,19.55
2022-12-03T23:38:22.806Z,19.56
2022-12-03T23:40:50.204Z,19.57
2022-12-03T23:43:17.178Z,19.58
2022-12-03T23:45:44.111Z,19.60
2022-12-03T23:48:11.357Z,19.62
2022-12-03T23:50:41.570Z,19.60
2022-12-03T23:53:08.902Z,19.58
2022-12-03T23:55:40.342Z,19.61
2022-12-03T23:58:07.599Z,19.62
